createdAt,value
2022-09-16T00:07:54.894Z,953.39
2022-09-16T00:13:26.664Z,953.31
2022-09-16T00:18:58.620Z,953.27
2022-09-16T00:24:30.339Z,953.23
2022-09-16T00:30:02.169Z,953.17
2022-09-16T00:35:33.948Z,953.17
2022-09-16T00:41:05.752Z,953.15
2022-09-16T00:46:37.414Z,953.15
2022-09-16T00:52:09.360Z,953.13
2022-09-16T00:57:41.039Z,953.19
2022-09-16T01:03:12.974Z,953.21
2022-09-16T01:08:44.566Z,953.23
2022-09-16T01:14:16.286Z,953.25
2022-09-16T01:25:19.802Z,953.15
2022-09-16T01:30:51.204Z,953.13
2022-09-16T01:36:22.607Z,953.13
2022-09-16T01:41:54.883Z,953.10
2022-09-16T01:47:26.644Z,953.12
2022-09-16T01:52:58.396Z,953.13
2022-09-16T01:58:29.827Z,953.13
2022-09-16T02:04:01.713Z,953.12
2022-09-16T02:09:33.701Z,953.12
2022-09-16T02:15:05.206Z,953.13
2022-09-16T02:20:37.064Z,953.17
2022-09-16T02:26:08.352Z,953.17
2022-09-16T02:31:39.900Z,953.17
2022-09-16T02:37:11.355Z,953.17
2022-09-16T02:42:43.149Z,953.19
2022-09-16T02:48:14.905Z,953.15
2022-09-16T02:53:46.738Z,953.13
2022-09-16T02:59:18.399Z,953.08
2022-09-16T03:04:50.196Z,953.10
2022-09-16T03:10:21.983Z,953.06
2022-09-16T03:15:53.664Z,953.02
2022-09-16T03:21:25.395Z,952.98
2022-09-16T03:26:57.338Z,953.00
2022-09-16T03:32:29.088Z,952.94
2022-09-16T03:38:00.923Z,952.88
2022-09-16T03:43:32.958Z,952.84
2022-09-16T03:49:04.304Z,952.78
2022-09-16T03:54:36.125Z,952.82
2022-09-16T04:00:07.954Z,952.80
2022-09-16T04:08:00.565Z,952.74
2022-09-16T04:21:14.398Z,952.78
2022-09-16T04:37:48.657Z,952.78
2022-09-16T04:43:20.140Z,952.76
2022-09-16T04:48:51.549Z,952.84
2022-09-16T04:54:22.932Z,952.88
2022-09-16T05:05:24.177Z,952.94
2022-09-16T05:10:55.537Z,952.98
2022-09-16T05:16:26.906Z,953.04
2022-09-16T05:21:58.436Z,953.02
2022-09-16T05:27:30.043Z,953.00
2022-09-16T05:33:01.432Z,953.02
2022-09-16T05:38:32.865Z,952.98
2022-09-16T05:44:04.197Z,953.02
2022-09-16T05:49:35.389Z,953.00
2022-09-16T06:00:36.044Z,952.96
2022-09-16T06:06:08.041Z,952.94
2022-09-16T06:11:39.755Z,952.92
2022-09-16T06:17:11.432Z,952.92
2022-09-16T06:22:42.774Z,952.86
2022-09-16T06:28:14.250Z,952.86
2022-09-16T06:33:45.945Z,952.86
2022-09-16T06:39:17.626Z,952.88
2022-09-16T06:44:49.069Z,952.90
2022-09-16T06:50:20.332Z,952.86
2022-09-16T06:55:51.807Z,952.88
2022-09-16T07:01:23.656Z,952.84
2022-09-16T07:07:09.253Z,952.80
2022-09-16T07:12:26.591Z,952.78
2022-09-16T07:17:58.018Z,952.78
2022-09-16T07:23:29.587Z,952.78
2022-09-16T07:29:01.015Z,952.74
2022-09-16T07:34:32.287Z,952.72
2022-09-16T07:40:05.606Z,952.72
2022-09-16T07:45:36.897Z,952.72
2022-09-16T07:51:08.516Z,952.68
2022-09-16T07:56:40.014Z,952.72
2022-09-16T08:02:12.013Z,952.74
2022-09-16T08:07:44.102Z,952.76
2022-09-16T08:13:15.328Z,952.76
2022-09-16T08:18:46.666Z,952.80
2022-09-16T08:24:18.382Z,952.82
2022-09-16T08:29:49.778Z,952.86
2022-09-16T08:35:21.122Z,952.86
2022-09-16T08:46:21.940Z,952.86
2022-09-16T08:51:53.338Z,952.84
2022-09-16T09:02:54.405Z,952.84
2022-09-16T09:13:57.868Z,952.86
2022-09-16T09:19:29.246Z,952.84
2022-09-16T09:25:00.629Z,952.86
2022-09-16T09:30:32.324Z,952.82
2022-09-16T09:36:03.681Z,952.80
2022-09-16T09:47:04.627Z,952.66
2022-09-16T09:52:36.086Z,952.65
2022-09-16T09:58:07.944Z,952.61
2022-09-16T10:03:39.644Z,952.63
2022-09-16T10:14:40.422Z,952.59
2022-09-16T10:20:12.246Z,952.57
2022-09-16T10:25:43.652Z,952.55
2022-09-16T10:31:15.369Z,952.53
2022-09-16T10:42:16.355Z,952.45
2022-09-16T10:47:47.920Z,952.39
2022-09-16T10:53:19.189Z,952.41
2022-09-16T11:04:22.438Z,952.51
2022-09-16T11:09:54.201Z,952.53
2022-09-16T11:31:58.432Z,952.74
2022-09-16T11:37:30.306Z,952.82
2022-09-16T11:43:01.980Z,952.82
2022-09-16T11:48:33.747Z,952.88
2022-09-16T11:54:05.504Z,952.92
2022-09-16T11:59:37.205Z,952.94
2022-09-16T12:10:38.055Z,952.98
2022-09-16T12:16:10.593Z,953.00
2022-09-16T12:21:42.261Z,953.04
2022-09-16T12:27:13.911Z,953.10
2022-09-16T12:32:45.585Z,953.13
2022-09-16T12:38:17.538Z,953.17
2022-09-16T12:43:49.216Z,953.25
2022-09-16T12:49:21.002Z,953.37
2022-09-16T12:55:07.298Z,953.47
2022-09-16T13:00:23.957Z,953.51
2022-09-16T13:05:55.438Z,953.53
2022-09-16T13:16:59.380Z,953.43
2022-09-16T13:22:31.054Z,953.35
2022-09-16T13:28:02.636Z,953.25
2022-09-16T13:33:34.666Z,953.21
2022-09-16T13:39:06.890Z,953.13
2022-09-16T13:44:38.865Z,953.17
2022-09-16T13:55:40.049Z,953.29
2022-09-16T14:01:13.926Z,953.33
2022-09-16T14:06:45.675Z,953.43
2022-09-16T14:12:17.508Z,953.45
2022-09-16T14:17:51.553Z,953.47
2022-09-16T14:23:21.239Z,953.51
2022-09-16T14:28:52.775Z,953.53
2022-09-16T14:34:24.615Z,953.53
2022-09-16T14:39:56.465Z,953.53
2022-09-16T14:45:27.862Z,953.51
2022-09-16T14:50:59.460Z,953.55
2022-09-16T14:56:30.972Z,953.55
2022-09-16T15:02:02.905Z,953.57
2022-09-16T15:07:34.431Z,953.60
2022-09-16T15:13:06.372Z,953.60
2022-09-16T15:18:38.178Z,953.59
2022-09-16T15:24:09.938Z,953.59
2022-09-16T15:29:41.537Z,953.59
2022-09-16T15:35:13.320Z,953.60
2022-09-16T15:40:45.072Z,953.57
2022-09-16T15:51:49.504Z,953.53
2022-09-16T15:57:21.106Z,953.45
2022-09-16T16:02:52.792Z,953.43
2022-09-16T16:08:24.467Z,953.39
2022-09-16T16:13:59.851Z,953.39
2022-09-16T16:19:27.438Z,953.39
2022-09-16T16:30:28.597Z,953.35
2022-09-16T16:36:02.068Z,953.33
2022-09-16T16:41:33.256Z,953.31
2022-09-16T16:47:04.718Z,953.31
2022-09-16T16:52:36.374Z,953.29
2022-09-16T16:58:08.282Z,953.29
2022-09-16T17:03:40.044Z,953.33
2022-09-16T17:09:15.699Z,953.43
2022-09-16T17:14:43.070Z,953.49
2022-09-16T17:20:14.830Z,953.49
2022-09-16T17:25:46.498Z,953.51
2022-09-16T17:27:58.420Z,953.49
2022-09-16T17:33:30.133Z,953.47
2022-09-16T17:39:01.684Z,953.41
2022-09-16T17:44:33.034Z,953.39
2022-09-16T17:50:04.394Z,953.35
2022-09-16T17:55:35.769Z,953.35
2022-09-16T18:03:29.374Z,953.35
2022-09-16T18:09:01.007Z,953.37
2022-09-16T18:14:32.605Z,953.33
2022-09-16T18:20:07.082Z,953.29
2022-09-16T18:25:35.523Z,953.31
2022-09-16T18:31:07.016Z,953.39
2022-09-16T18:36:38.601Z,953.41
2022-09-16T18:42:10.333Z,953.43
2022-09-16T18:47:42.043Z,953.49
2022-09-16T18:53:13.598Z,953.55
2022-09-16T18:58:58.252Z,953.57
2022-09-16T19:04:16.260Z,953.59
2022-09-16T19:09:47.670Z,953.60
2022-09-16T19:15:18.849Z,953.59
2022-09-16T19:20:50.559Z,953.57
2022-09-16T19:26:22.139Z,953.53
2022-09-16T19:31:53.386Z,953.57
2022-09-16T19:37:25.264Z,953.59
2022-09-16T19:42:56.539Z,953.62
2022-09-16T19:48:27.843Z,953.64
2022-09-16T19:53:59.393Z,953.62
2022-09-16T19:59:30.997Z,953.62
2022-09-16T20:05:05.092Z,953.64
2022-09-16T20:10:34.807Z,953.62
2022-09-16T20:16:05.946Z,953.60
2022-09-16T20:27:08.686Z,953.64
2022-09-16T20:32:40.014Z,953.66
2022-09-16T20:38:11.417Z,953.64
2022-09-16T20:43:43.048Z,953.68
2022-09-16T20:49:14.232Z,953.64
2022-09-16T20:54:45.712Z,953.68
2022-09-16T21:00:17.678Z,953.64
2022-09-16T21:05:49.364Z,953.66
2022-09-16T21:11:21.028Z,953.72
2022-09-16T21:16:52.640Z,953.76
2022-09-16T21:22:24.410Z,953.98
2022-09-16T21:27:56.171Z,954.12
2022-09-16T21:33:28.061Z,954.19
2022-09-16T21:38:59.709Z,954.19
2022-09-16T21:44:30.918Z,954.17
2022-09-16T21:50:02.241Z,954.14
2022-09-16T21:55:33.520Z,954.08
2022-09-16T22:01:05.122Z,954.06
2022-09-16T22:06:37.022Z,954.10
2022-09-16T22:12:08.681Z,954.06
2022-09-16T22:17:40.394Z,954.04
2022-09-16T22:23:12.413Z,954.02
2022-09-16T22:28:43.959Z,954.04
2022-09-16T22:34:15.445Z,954.02
2022-09-16T22:39:47.097Z,954.06
2022-09-16T22:45:18.632Z,954.08
2022-09-16T22:50:50.120Z,954.06
2022-09-16T22:56:21.700Z,954.06
2022-09-16T23:01:53.216Z,954.04
2022-09-16T23:07:24.519Z,954.02
2022-09-16T23:12:55.715Z,954.02
2022-09-16T23:18:27.082Z,954.02
2022-09-16T23:23:58.224Z,954.02
2022-09-16T23:29:29.857Z,954.00
2022-09-16T23:35:01.737Z,954.02
2022-09-16T23:40:33.707Z,953.98
2022-09-16T23:46:05.195Z,954.00
2022-09-16T23:51:36.820Z,954.02
